Forest City, Iowa
Current Conditions -  °F | °C
As of 1:30 PM on Thursday 27 Nov 2014 (Local Time) from KFXY Reporting Station
Clear Clear  
Wind Chill: -8°   Ceiling: Unl
Heat Index:   Visibility: 10mi
Dew Point: -4°   Wind: 5mph
Humidity: 78%   Direction: 340°NNW
Pressure: 30.43"   Gusts: NA
Location:  43.26°N, 93.64°W
Report Text: KFXY 271930Z AUTO 34004KT 10SM CLR M17/M20 A3043 RMK AO2
Loading
Personal Weather Stations






























Interactive Weather Map New forecast layout! Learn more

10-Day Weather Forecast

Advertisements
Track Severe Weather on mobile